Time;durP1;ratioP1;P1;durP2;ratioP2;P2;SDS_P1;SDS_P2;PMS_P1;PMS_P2;Temp;Humidity;BMP_temperature;BMP_pressure;BME280_temperature;BME280_humidity;BME280_pressure;Samples;Min_cycle;Max_cycle;Signal;HPM_P1;HPM_P2
2023/05/27 00:00:09;;;;;;;11.30;4.43;;;;;;;17.86;nan;99996.50;5051800;28;20220;-85
2023/05/27 00:02:35;;;;;;;7.67;4.73;;;;;;;17.82;nan;99989.78;5053633;28;20226;-84
2023/05/27 00:05:02;;;;;;;12.80;5.95;;;;;;;17.79;nan;99990.03;5053999;28;20463;-85
2023/05/27 00:07:27;;;;;;;9.87;5.27;;;;;;;17.75;nan;99980.63;5053777;28;20288;-85
2023/05/27 00:09:53;;;;;;;9.67;4.93;;;;;;;17.76;nan;99984.13;5053349;28;20624;-85
2023/05/27 00:12:19;;;;;;;8.17;4.73;;;;;;;17.70;nan;99981.03;5053116;28;20545;-85
2023/05/27 00:14:45;;;;;;;10.33;5.53;;;;;;;17.66;nan;99978.75;5052721;28;20351;-85
2023/05/27 00:17:13;;;;;;;14.30;5.37;;;;;;;17.64;nan;99984.22;5054123;28;20202;-85
2023/05/27 00:19:39;;;;;;;9.33;4.90;;;;;;;17.63;nan;99985.22;5053805;28;20272;-86
2023/05/27 00:22:05;;;;;;;7.27;4.63;;;;;;;17.64;nan;99980.72;5052174;28;20460;-85
2023/05/27 00:24:30;;;;;;;7.67;4.23;;;;;;;17.64;nan;99983.38;5051942;28;20476;-84
2023/05/27 00:26:56;;;;;;;10.10;5.03;;;;;;;17.62;nan;99990.66;5054102;28;20214;-85
2023/05/27 00:29:21;;;;;;;7.83;5.03;;;;;;;17.59;nan;99989.09;5038691;28;20213;-85
2023/05/27 00:31:47;;;;;;;8.17;5.30;;;;;;;17.54;nan;99990.47;5035986;28;20299;-85
2023/05/27 00:34:12;;;;;;;13.80;5.97;;;;;;;17.48;nan;99990.03;5054482;28;20460;-84
2023/05/27 00:36:38;;;;;;;8.73;6.00;;;;;;;17.45;nan;99992.94;5054416;28;20216;-85
2023/05/27 00:39:05;;;;;;;9.57;5.00;;;;;;;17.41;nan;99986.19;5053568;28;20210;-84
2023/05/27 00:41:31;;;;;;;8.90;4.37;;;;;;;17.38;nan;99988.28;5054486;28;20215;-84
2023/05/27 00:43:56;;;;;;;10.70;5.20;;;;;;;17.34;nan;99987.72;5054163;28;20462;-85
2023/05/27 00:46:22;;;;;;;8.27;5.20;;;;;;;17.31;nan;99987.13;5036069;28;20218;-85
2023/05/27 00:48:48;;;;;;;8.73;4.57;;;;;;;17.28;nan;99984.75;5036178;28;20420;-84
2023/05/27 00:51:14;;;;;;;10.07;5.77;;;;;;;17.25;nan;99984.06;5054042;28;20217;-84
2023/05/27 00:53:41;;;;;;;9.33;5.30;;;;;;;17.21;nan;99974.66;5052251;28;20469;-84
2023/05/27 00:56:08;;;;;;;9.13;4.90;;;;;;;17.14;nan;99977.94;5053567;28;20466;-84
2023/05/27 00:58:34;;;;;;;15.20;6.53;;;;;;;17.03;nan;99977.03;5032993;28;20529;-85
2023/05/27 01:01:01;;;;;;;9.83;4.60;;;;;;;16.96;nan;99967.94;5051777;28;20485;-84
2023/05/27 01:03:28;;;;;;;7.27;4.50;;;;;;;16.91;nan;99970.13;5051417;28;20478;-84
2023/05/27 01:06:04;;;;;;;9.10;5.88;;;;;;;16.89;nan;99966.75;5032279;28;20472;-85
2023/05/27 01:08:59;;;;;;;13.73;4.77;;;;;;;16.87;nan;99966.03;5034523;28;20218;-84
2023/05/27 01:11:31;;;;;;;14.87;7.60;;;;;;;16.84;nan;99963.66;5008468;28;20462;-85
2023/05/27 01:14:03;;;;;;;10.70;5.30;;;;;;;16.84;nan;99958.34;5057360;28;20982;-84
2023/05/27 01:16:30;;;;;;;6.80;4.70;;;;;;;16.81;nan;99962.09;5053626;28;20464;-85
2023/05/27 01:18:59;;;;;;;12.27;6.07;;;;;;;16.78;nan;99956.22;5057617;28;20458;-84
2023/05/27 01:21:30;;;;;;;5.63;5.07;;;;;;;16.70;nan;99963.94;5056082;28;20571;-85
2023/05/27 01:24:02;;;;;;;8.50;4.97;;;;;;;16.63;nan;99955.66;5056360;28;20489;-85
2023/05/27 01:26:28;;;;;;;5.53;4.10;;;;;;;16.57;nan;99962.31;5036254;28;20473;-85
2023/05/27 01:28:54;;;;;;;12.07;4.95;;;;;;;16.51;nan;99957.53;5037663;28;20974;-85
2023/05/27 01:31:25;;;;;;;13.60;6.53;;;;;;;16.46;nan;99961.53;5036509;28;20283;-84
2023/05/27 01:34:01;;;;;;;10.05;5.20;;;;;;;16.44;nan;99952.84;5055507;28;20240;-85
2023/05/27 01:36:30;;;;;;;10.07;5.25;;;;;;;16.41;nan;99951.28;5037670;28;20223;-85
2023/05/27 01:38:58;;;;;;;7.72;4.25;;;;;;;16.41;nan;99953.09;5039587;28;20205;-84
2023/05/27 01:41:25;;;;;;;8.13;4.73;;;;;;;16.38;nan;99959.50;5038554;28;20218;-85
2023/05/27 01:43:51;;;;;;;8.43;5.28;;;;;;;16.35;nan;99968.53;5055678;28;20540;-85
2023/05/27 01:46:17;;;;;;;9.57;4.93;;;;;;;16.31;nan;99953.00;5022200;28;20219;-85
2023/05/27 01:48:43;;;;;;;7.10;5.13;;;;;;;16.30;nan;99951.34;5039832;28;20265;-85
2023/05/27 01:51:08;;;;;;;12.07;5.47;;;;;;;16.29;nan;99954.97;5038628;28;20221;-84
2023/05/27 01:53:34;;;;;;;7.40;5.20;;;;;;;16.29;nan;99954.97;5038306;28;20283;-85
2023/05/27 01:56:00;;;;;;;14.30;6.17;;;;;;;16.25;nan;99954.34;5037037;28;20431;-84
2023/05/27 01:58:26;;;;;;;7.65;4.97;;;;;;;16.23;nan;99945.72;5037922;28;20294;-85
2023/05/27 02:00:51;;;;;;;12.50;5.90;;;;;;;16.17;nan;99945.34;5055488;28;20661;-84
2023/05/27 02:03:17;;;;;;;12.73;5.50;;;;;;;16.14;nan;99941.13;5036482;28;20308;-84
2023/05/27 02:05:44;;;;;;;7.85;4.93;;;;;;;16.10;nan;99943.22;5037381;28;20513;-85
2023/05/27 02:08:10;;;;;;;14.55;5.00;;;;;;;16.05;nan;99942.72;5037208;28;20220;-85
2023/05/27 02:10:35;;;;;;;10.20;5.30;;;;;;;16.02;nan;99940.34;5054781;28;20711;-85
2023/05/27 02:13:01;;;;;;;11.97;5.90;;;;;;;16.02;nan;99952.75;5056091;28;20219;-85
2023/05/27 02:15:27;;;;;;;16.77;7.65;;;;;;;15.99;nan;99948.53;5043984;28;20282;-84
2023/05/27 02:17:55;;;;;;;9.40;5.75;;;;;;;15.93;nan;99947.22;5047785;28;20216;-84
2023/05/27 02:20:22;;;;;;;8.05;4.40;;;;;;;15.90;nan;99944.84;5037389;28;20249;-84
2023/05/27 02:22:50;;;;;;;12.05;5.57;;;;;;;15.85;nan;99947.00;5035888;28;20300;-84
2023/05/27 02:25:15;;;;;;;11.45;5.40;;;;;;;15.82;nan;99935.78;5036328;28;20218;-85
2023/05/27 02:27:43;;;;;;;14.10;5.30;;;;;;;15.79;nan;99938.69;5051929;28;20691;-85
2023/05/27 02:30:09;;;;;;;10.90;5.70;;;;;;;15.75;nan;99945.22;5055340;28;20251;-84
2023/05/27 02:32:35;;;;;;;11.13;4.88;;;;;;;15.70;nan;99941.09;5053747;28;20215;-85
2023/05/27 02:35:02;;;;;;;10.35;5.30;;;;;;;15.65;nan;99937.94;5040323;28;20217;-85
2023/05/27 02:37:28;;;;;;;9.68;5.03;;;;;;;15.60;nan;99940.13;5037271;28;20443;-84
2023/05/27 02:39:54;;;;;;;8.20;5.20;;;;;;;15.57;nan;99943.00;5038864;28;21269;-85
2023/05/27 02:42:20;;;;;;;14.20;5.40;;;;;;;15.55;nan;99938.81;5039183;28;20747;-84
2023/05/27 02:44:45;;;;;;;10.43;5.33;;;;;;;15.51;nan;99935.56;5056552;28;20307;-84
2023/05/27 02:47:11;;;;;;;7.90;5.33;;;;;;;15.47;nan;99937.63;5037179;28;20218;-84
2023/05/27 02:49:38;;;;;;;9.30;5.28;;;;;;;15.45;nan;99936.06;5037741;28;21101;-85
2023/05/27 02:52:04;;;;;;;9.53;5.37;;;;;;;15.42;nan;99937.13;5036600;28;20199;-84
2023/05/27 02:54:29;;;;;;;7.30;4.83;;;;;;;15.41;nan;99937.25;5057016;28;20222;-84
2023/05/27 02:56:55;;;;;;;11.83;5.07;;;;;;;15.42;nan;99936.31;5055421;28;20209;-85
2023/05/27 02:59:20;;;;;;;7.33;4.27;;;;;;;15.46;nan;99935.09;5053809;28;20231;-85
2023/05/27 03:01:45;;;;;;;12.20;5.03;;;;;;;15.49;nan;99932.19;5033487;28;20274;-85
2023/05/27 03:04:11;;;;;;;9.60;5.13;;;;;;;15.51;nan;99932.91;5016033;28;20228;-85
2023/05/27 03:06:36;;;;;;;11.70;5.40;;;;;;;15.50;nan;99941.84;5054541;28;20602;-84
2023/05/27 03:09:03;;;;;;;9.03;5.17;;;;;;;15.45;nan;99934.25;5055859;28;20254;-84
2023/05/27 03:11:28;;;;;;;11.63;4.97;;;;;;;15.41;nan;99942.53;5036389;28;20702;-84
2023/05/27 03:13:53;;;;;;;9.20;5.50;;;;;;;15.38;nan;99940.13;5052742;28;20218;-84
2023/05/27 03:16:19;;;;;;;9.27;4.47;;;;;;;15.36;nan;99950.00;5034579;28;20217;-83
2023/05/27 03:18:46;;;;;;;9.40;4.88;;;;;;;15.35;nan;99938.56;5034879;28;20227;-84
2023/05/27 03:21:12;;;;;;;8.85;4.90;;;;;;;15.35;nan;99937.72;5036853;28;20619;-84
2023/05/27 03:23:38;;;;;;;12.07;7.23;;;;;;;15.32;nan;99943.28;5037201;28;20438;-84
2023/05/27 03:26:04;;;;;;;7.73;5.90;;;;;;;15.27;nan;99939.16;5035837;28;20271;-84
2023/05/27 03:28:30;;;;;;;9.95;4.63;;;;;;;15.27;nan;99941.81;5034973;28;20242;-83
2023/05/27 03:30:56;;;;;;;8.23;4.87;;;;;;;15.26;nan;99949.88;5037227;28;20726;-84
2023/05/27 03:33:38;;;;;;;18.00;5.13;;;;;;;15.23;nan;99950.13;5034654;28;20464;-84
2023/05/27 03:36:04;;;;;;;10.53;4.47;;;;;;;15.18;nan;99954.94;5051884;28;20220;-84
2023/05/27 03:38:30;;;;;;;6.35;5.07;;;;;;;15.15;nan;99948.06;5036065;28;20469;-84
2023/05/27 03:40:56;;;;;;;8.73;6.13;;;;;;;15.10;nan;99952.03;5050994;28;20233;-83
2023/05/27 03:43:22;;;;;;;8.87;6.63;;;;;;;15.06;nan;99954.06;5037478;28;20216;-84
2023/05/27 03:45:47;;;;;;;8.83;4.43;;;;;;;15.02;nan;99944.69;5034507;28;20635;-84
2023/05/27 03:48:12;;;;;;;7.43;4.70;;;;;;;15.01;nan;99956.19;5035134;28;20266;-85
2023/05/27 03:50:38;;;;;;;8.93;5.10;;;;;;;14.96;nan;99953.06;5035284;28;20722;-84
2023/05/27 03:53:03;;;;;;;13.87;5.33;;;;;;;14.89;nan;99957.16;5037616;28;20235;-84
2023/05/27 03:55:29;;;;;;;8.30;4.73;;;;;;;14.88;nan;99955.44;5053592;28;20202;-84
2023/05/27 03:57:54;;;;;;;18.63;5.27;;;;;;;14.81;nan;99950.63;5053606;28;20275;-85
2023/05/27 04:00:20;;;;;;;8.30;4.50;;;;;;;14.82;nan;99952.34;5052278;28;20231;-85
2023/05/27 04:02:49;;;;;;;7.40;4.10;;;;;;;14.81;nan;99950.63;5053794;28;20387;-85
2023/05/27 04:05:16;;;;;;;10.20;5.50;;;;;;;14.80;nan;99954.25;5048471;28;20435;-84
2023/05/27 04:07:41;;;;;;;9.13;4.70;;;;;;;14.77;nan;99948.34;5049431;28;20311;-84
2023/05/27 04:10:08;;;;;;;6.75;3.83;;;;;;;14.76;nan;99942.22;5036095;28;20217;-84
2023/05/27 04:12:34;;;;;;;6.27;4.20;;;;;;;14.74;nan;99954.72;5053353;28;20220;-84
2023/05/27 04:15:00;;;;;;;6.17;4.07;;;;;;;14.74;nan;99948.56;5053274;28;20213;-84
2023/05/27 04:17:26;;;;;;;6.30;5.13;;;;;;;14.71;nan;99944.34;5051734;28;20589;-85
2023/05/27 04:19:51;;;;;;;13.25;4.65;;;;;;;14.72;nan;99951.34;5034299;28;21110;-85
2023/05/27 04:22:17;;;;;;;7.43;4.07;;;;;;;14.72;nan;99943.41;5036206;28;20221;-85
2023/05/27 04:24:44;;;;;;;6.32;4.03;;;;;;;14.74;nan;99952.09;5037398;28;20215;-85
2023/05/27 04:27:09;;;;;;;6.43;3.70;;;;;;;14.77;nan;99946.56;5036162;28;20221;-85
2023/05/27 04:29:35;;;;;;;7.30;4.63;;;;;;;14.83;nan;99958.47;5034143;28;20247;-84
2023/05/27 04:32:01;;;;;;;11.50;4.70;;;;;;;14.89;nan;99951.88;5049809;28;20216;-84
2023/05/27 04:34:26;;;;;;;11.77;5.07;;;;;;;14.97;nan;99957.41;5048065;28;20518;-85
2023/05/27 04:36:52;;;;;;;8.30;4.67;;;;;;;15.01;nan;99958.84;5036058;28;20720;-85
2023/05/27 04:39:20;;;;;;;9.05;4.70;;;;;;;15.06;nan;99959.34;5036204;28;20593;-85
2023/05/27 04:41:46;;;;;;;13.67;5.20;;;;;;;15.09;nan;99956.47;5053009;28;20217;-84
2023/05/27 04:44:18;;;;;;;11.25;5.35;;;;;;;15.16;nan;99951.56;5036253;28;20231;-84
2023/05/27 04:46:45;;;;;;;13.98;5.63;;;;;;;15.29;nan;99956.75;5038824;28;20853;-84
2023/05/27 04:49:11;;;;;;;10.25;6.05;;;;;;;15.42;nan;99954.84;5049073;28;20667;-84
2023/05/27 04:51:37;;;;;;;9.17;4.40;;;;;;;15.70;nan;99958.81;5037307;28;20308;-84
2023/05/27 04:54:07;;;;;;;6.00;4.90;;;;;;;16.06;nan;99957.66;5032172;28;21069;-83
2023/05/27 04:56:36;;;;;;;8.93;4.75;;;;;;;16.47;nan;99952.59;5033494;28;20510;-84
2023/05/27 04:59:01;;;;;;;7.57;4.93;;;;;;;16.83;nan;99950.53;5039211;28;20220;-84
2023/05/27 05:01:48;;;;;;;5.38;4.30;;;;;;;17.22;nan;99957.75;5039093;28;20685;-83
2023/05/27 05:04:16;;;;;;;6.65;3.67;;;;;;;17.64;nan;99956.81;5037763;28;20220;-85
2023/05/27 05:07:01;;;;;;;12.05;6.15;;;;;;;17.96;nan;99958.47;5034171;28;20210;-83
2023/05/27 05:09:28;;;;;;;8.33;4.00;;;;;;;18.21;nan;99967.78;5033944;28;20246;-84
2023/05/27 05:11:55;;;;;;;6.90;3.70;;;;;;;18.38;nan;99951.13;5034537;28;20475;-84
2023/05/27 05:14:20;;;;;;;8.53;4.70;;;;;;;18.59;nan;99961.63;5034129;28;21016;-86
2023/05/27 05:16:46;;;;;;;9.00;4.57;;;;;;;18.70;nan;99957.97;5042031;28;20575;-84
2023/05/27 05:19:12;;;;;;;9.33;4.20;;;;;;;18.90;nan;99961.47;5035605;28;20338;-85
2023/05/27 05:21:38;;;;;;;10.40;4.80;;;;;;;19.15;nan;99952.91;5038353;28;20657;-84
2023/05/27 05:24:07;;;;;;;6.47;3.67;;;;;;;19.35;nan;99959.00;5038296;28;20471;-85
2023/05/27 05:26:32;;;;;;;7.90;5.27;;;;;;;19.61;nan;99958.34;5038959;28;20836;-84
2023/05/27 05:28:59;;;;;;;6.33;4.00;;;;;;;19.84;nan;99961.47;5037905;28;20543;-85
2023/05/27 05:31:25;;;;;;;7.57;4.70;;;;;;;20.00;nan;99958.16;5038554;28;20467;-85
2023/05/27 05:33:50;;;;;;;8.07;5.18;;;;;;;20.15;nan;99959.34;5039790;28;20430;-84
2023/05/27 05:36:16;;;;;;;14.00;5.13;;;;;;;20.27;nan;99954.63;5035834;28;20205;-84
2023/05/27 05:38:51;;;;;;;8.50;5.63;;;;;;;20.50;nan;99957.69;5056424;28;20525;-84
2023/05/27 05:41:25;;;;;;;11.23;4.77;;;;;;;20.65;nan;99958.81;5043685;28;20545;-85
2023/05/27 05:43:51;;;;;;;6.20;4.63;;;;;;;20.84;nan;99956.97;5046319;28;20216;-84
2023/05/27 05:46:17;;;;;;;8.73;3.80;;;;;;;21.02;nan;99959.63;5045712;28;21081;-83
2023/05/27 05:48:46;;;;;;;8.13;4.20;;;;;;;21.22;nan;99966.41;5043109;28;20368;-84
2023/05/27 05:51:17;;;;;;;9.83;4.30;;;;;;;21.35;nan;99966.00;5040093;28;20437;-83
2023/05/27 05:53:46;;;;;;;10.27;3.77;;;;;;;21.48;nan;99957.59;5038215;28;20466;-84
2023/05/27 05:56:17;;;;;;;4.73;3.53;;;;;;;21.46;nan;99956.91;5041618;28;20470;-84
2023/05/27 05:58:43;;;;;;;8.07;4.43;;;;;;;21.56;nan;99961.13;5044678;28;20674;-84
2023/05/27 06:01:08;;;;;;;11.17;4.40;;;;;;;21.82;nan;99957.56;5037772;28;20570;-85
2023/05/27 06:03:37;;;;;;;9.13;5.20;;;;;;;22.02;nan;99955.47;5055346;28;20229;-85
2023/05/27 06:06:05;;;;;;;6.78;4.30;;;;;;;22.27;nan;99962.56;5037624;28;20435;-84
2023/05/27 06:08:35;;;;;;;5.70;3.90;;;;;;;22.44;nan;99951.88;5036579;28;20219;-85
2023/05/27 06:11:07;;;;;;;8.53;4.03;;;;;;;22.71;nan;99961.41;5038401;28;20592;-85
2023/05/27 06:13:33;;;;;;;12.00;4.50;;;;;;;22.99;nan;99967.31;5039569;28;21319;-84
2023/05/27 06:15:59;;;;;;;8.50;3.57;;;;;;;23.19;nan;99959.75;5041314;28;20463;-84
2023/05/27 06:18:25;;;;;;;5.30;3.90;;;;;;;23.24;nan;99964.59;5040697;28;20440;-85
2023/05/27 06:20:51;;;;;;;7.80;4.50;;;;;;;23.27;nan;99961.56;5034762;28;20478;-84
2023/05/27 06:23:17;;;;;;;11.47;3.93;;;;;;;23.31;nan;99962.91;5036669;28;20245;-84
2023/05/27 06:26:02;;;;;;;4.73;3.53;;;;;;;23.41;nan;99975.13;5038014;28;21280;-84
2023/05/27 06:28:33;;;;;;;6.20;4.00;;;;;;;23.62;nan;99960.28;5037642;28;20499;-84
2023/05/27 06:30:58;;;;;;;8.10;4.37;;;;;;;23.88;nan;99964.59;5038434;28;20880;-85
2023/05/27 06:33:24;;;;;;;7.13;4.43;;;;;;;24.17;nan;99963.91;5038580;28;20200;-85
2023/05/27 06:35:49;;;;;;;7.67;5.00;;;;;;;24.41;nan;99969.13;5039046;28;20208;-85
2023/05/27 06:38:15;;;;;;;4.60;3.17;;;;;;;24.63;nan;99951.38;5037919;28;20506;-84
2023/05/27 06:40:40;;;;;;;6.80;3.90;;;;;;;24.80;nan;99961.97;5037160;28;20222;-84
2023/05/27 06:43:07;;;;;;;10.83;4.33;;;;;;;24.84;nan;99961.41;5039870;28;20225;-83
2023/05/27 06:45:42;;;;;;;6.60;3.50;;;;;;;24.92;nan;99956.00;5039571;28;20444;-84
2023/05/27 06:48:22;;;;;;;8.43;4.20;;;;;;;25.09;nan;99951.28;5038668;28;20432;-85
2023/05/27 06:50:47;;;;;;;7.53;4.23;;;;;;;25.32;nan;99948.53;5050163;28;20431;-85
2023/05/27 06:53:13;;;;;;;7.50;3.97;;;;;;;25.49;nan;99957.28;5056118;28;20186;-84
2023/05/27 06:55:50;;;;;;;10.60;4.33;;;;;;;25.45;nan;99952.44;5037097;28;20291;-86
2023/05/27 06:58:34;;;;;;;7.20;4.53;;;;;;;25.45;nan;99947.91;5056411;28;20423;-85
2023/05/27 07:01:04;;;;;;;6.47;3.23;;;;;;;25.52;nan;99947.97;5036671;28;20459;-85
2023/05/27 07:03:41;;;;;;;5.07;3.40;;;;;;;25.57;nan;99940.19;5037701;28;20444;-84
2023/05/27 07:06:08;;;;;;;8.38;4.13;;;;;;;25.73;nan;99945.34;5019343;28;20440;-85
2023/05/27 07:08:42;;;;;;;6.97;3.77;;;;;;;25.97;nan;99938.03;5036799;28;20213;-84
2023/05/27 07:11:33;;;;;;;6.63;3.73;;;;;;;26.25;nan;99948.91;5051929;28;20446;-85
2023/05/27 07:14:03;;;;;;;9.67;4.10;;;;;;;26.49;nan;99939.59;5035961;28;20986;-85
2023/05/27 07:16:31;;;;;;;10.63;5.13;;;;;;;26.61;nan;99935.41;5037470;28;20428;-85
2023/05/27 07:18:57;;;;;;;8.73;3.50;;;;;;;26.57;nan;99939.53;5037692;28;20462;-84
2023/05/27 07:21:23;;;;;;;7.80;4.17;;;;;;;26.54;nan;99934.50;5036437;28;20459;-85
2023/05/27 07:23:49;;;;;;;8.23;3.70;;;;;;;26.39;nan;99944.50;5037697;28;20539;-84
2023/05/27 07:26:44;;;;;;;8.90;4.33;;;;;;;26.41;nan;99929.81;5044351;28;20218;-84
2023/05/27 07:29:10;;;;;;;4.77;3.60;;;;;;;26.51;nan;99924.09;5037312;28;20940;-85
2023/05/27 07:31:51;;;;;;;4.20;3.70;;;;;;;26.57;nan;99931.44;5055976;28;20282;-84
2023/05/27 07:34:18;;;;;;;5.13;3.73;;;;;;;26.81;nan;99929.31;5039647;28;20443;-84
2023/05/27 07:36:43;;;;;;;10.60;3.87;;;;;;;27.03;nan;99922.03;5038609;28;20424;-84
2023/05/27 07:39:09;;;;;;;6.80;4.30;;;;;;;27.03;nan;99917.47;5019796;28;20749;-83
2023/05/27 07:41:34;;;;;;;12.43;4.67;;;;;;;26.94;nan;99907.88;5038126;28;20233;-83
2023/05/27 07:44:02;;;;;;;7.07;4.00;;;;;;;26.98;nan;99914.53;5038820;28;20397;-84
2023/05/27 07:46:28;;;;;;;7.10;4.00;;;;;;;27.14;nan;99916.09;5055099;28;20467;-84
2023/05/27 07:48:54;;;;;;;7.03;5.27;;;;;;;27.16;nan;99919.41;5055508;28;20208;-85
2023/05/27 07:51:20;;;;;;;4.93;3.37;;;;;;;27.15;nan;99915.88;5021384;28;20452;-83
2023/05/27 07:53:47;;;;;;;6.80;4.57;;;;;;;27.17;nan;99914.88;5039599;28;21182;-84
2023/05/27 07:56:13;;;;;;;9.47;3.70;;;;;;;27.14;nan;99914.22;5041556;28;20252;-84
2023/05/27 07:58:38;;;;;;;13.20;4.40;;;;;;;27.06;nan;99913.56;5037181;28;20566;-84
2023/05/27 08:01:11;;;;;;;12.77;4.33;;;;;;;26.99;nan;99909.97;5043734;28;20317;-84
2023/05/27 08:03:39;;;;;;;7.30;4.63;;;;;;;26.90;nan;99909.31;5036844;28;20480;-84
2023/05/27 08:06:26;;;;;;;6.17;3.93;;;;;;;26.97;nan;99891.28;5036912;28;20960;-85
2023/05/27 08:09:11;;;;;;;6.20;5.10;;;;;;;26.96;nan;99891.50;5040037;28;20501;-84
2023/05/27 08:11:51;;;;;;;6.80;3.60;;;;;;;26.78;nan;99892.00;5037288;28;20426;-85
2023/05/27 08:14:35;;;;;;;8.90;4.50;;;;;;;26.54;nan;99885.16;5054852;28;20445;-85
2023/05/27 08:17:07;;;;;;;9.67;4.67;;;;;;;26.43;nan;99886.50;5055418;28;20951;-83
2023/05/27 08:19:41;;;;;;;4.47;3.53;;;;;;;26.40;nan;99878.81;5055324;28;20476;-85
2023/05/27 08:22:15;;;;;;;7.03;4.00;;;;;;;26.34;nan;99880.41;5042065;28;21179;-84
2023/05/27 08:25:16;;;;;;;8.70;4.00;;;;;;;26.17;nan;99879.84;4956673;28;20448;-84
2023/05/27 08:30:35;;;;;;;11.20;4.87;;;;;;;25.86;nan;99869.38;5203055;22;21240;-85
2023/05/27 08:33:23;;;;;;;6.73;3.87;;;;;;;25.63;nan;99863.28;5035101;28;20509;-85
2023/05/27 08:35:49;;;;;;;7.30;4.00;;;;;;;25.29;nan;99865.56;5039086;28;20470;-85
2023/05/27 08:38:14;;;;;;;9.87;4.70;;;;;;;25.03;nan;99855.25;5053666;28;20439;-85
2023/05/27 08:40:40;;;;;;;6.70;4.00;;;;;;;24.95;nan;99858.88;5041227;28;20214;-85
2023/05/27 08:43:06;;;;;;;5.60;4.33;;;;;;;25.00;nan;99855.63;5039683;28;20528;-86
2023/05/27 08:45:36;;;;;;;7.77;4.10;;;;;;;25.16;nan;99855.47;5036454;28;20210;-86
2023/05/27 08:48:01;;;;;;;11.87;4.83;;;;;;;25.24;nan;99851.84;5036484;28;20444;-85
2023/05/27 08:50:33;;;;;;;8.60;5.03;;;;;;;25.23;nan;99852.88;5035687;28;20486;-87
2023/05/27 08:53:00;;;;;;;6.03;4.10;;;;;;;25.32;nan;99854.44;5040816;28;20608;-86
2023/05/27 08:55:29;;;;;;;7.17;4.07;;;;;;;25.38;nan;99851.00;5042389;28;20214;-86
2023/05/27 08:57:56;;;;;;;8.70;4.40;;;;;;;25.48;nan;99848.00;5034343;28;20449;-85
2023/05/27 09:00:24;;;;;;;6.30;4.20;;;;;;;25.49;nan;99847.00;5037226;28;20458;-85
2023/05/27 09:02:54;;;;;;;6.87;4.70;;;;;;;25.55;nan;99848.09;5036930;28;20447;-84
2023/05/27 09:05:20;;;;;;;10.00;5.20;;;;;;;25.65;nan;99848.63;5033933;28;20424;-86
2023/05/27 09:07:46;;;;;;;6.20;4.97;;;;;;;25.81;nan;99842.16;5032256;28;20639;-86
2023/05/27 09:10:11;;;;;;;5.13;3.10;;;;;;;25.83;nan;99846.38;5045593;28;20639;-85
2023/05/27 09:12:37;;;;;;;6.33;5.10;;;;;;;25.78;nan;99851.44;5043721;28;20262;-85
2023/05/27 09:15:03;;;;;;;8.23;4.90;;;;;;;25.62;nan;99838.25;5040927;28;20218;-85
2023/05/27 09:17:29;;;;;;;5.90;4.10;;;;;;;25.53;nan;99839.38;5041991;28;20577;-85
2023/05/27 09:19:55;;;;;;;6.73;4.10;;;;;;;25.47;nan;99838.28;5043135;28;20530;-86
2023/05/27 09:22:22;;;;;;;6.17;4.10;;;;;;;25.58;nan;99826.22;5036993;28;20444;-85
2023/05/27 09:24:48;;;;;;;5.30;4.10;;;;;;;25.73;nan;99829.66;5038702;28;20213;-85
2023/05/27 09:27:14;;;;;;;12.70;5.33;;;;;;;25.83;nan;99821.28;5041320;28;21182;-85
2023/05/27 09:29:40;;;;;;;5.70;5.17;;;;;;;25.94;nan;99818.13;5037435;28;20544;-85
2023/05/27 09:32:07;;;;;;;6.33;4.40;;;;;;;25.75;nan;99822.25;5037518;28;20208;-85
2023/05/27 09:34:38;;;;;;;6.97;4.53;;;;;;;25.66;nan;99834.16;5046171;28;20455;-85
2023/05/27 09:37:04;;;;;;;12.03;4.73;;;;;;;25.58;nan;99812.75;5038147;28;20466;-85
2023/05/27 09:39:30;;;;;;;9.57;5.13;;;;;;;25.49;nan;99812.03;5036939;28;20439;-85
2023/05/27 09:41:58;;;;;;;14.83;4.83;;;;;;;25.45;nan;99810.75;5038038;28;20309;-85
2023/05/27 09:44:36;;;;;;;8.30;3.87;;;;;;;25.47;nan;99814.09;5036495;28;20444;-85
2023/05/27 09:47:05;;;;;;;9.97;5.57;;;;;;;25.63;nan;99802.25;5037009;28;20848;-85
2023/05/27 09:49:34;;;;;;;8.43;5.10;;;;;;;25.72;nan;99803.78;5037639;28;20488;-85
2023/05/27 09:52:01;;;;;;;12.53;6.07;;;;;;;25.80;nan;99803.66;5021809;28;20525;-84
2023/05/27 09:54:27;;;;;;;12.77;4.10;;;;;;;25.91;nan;99796.97;5037362;28;20425;-85
2023/05/27 09:56:52;;;;;;;9.00;3.90;;;;;;;26.01;nan;99800.19;5037647;28;20432;-85
2023/05/27 09:59:18;;;;;;;7.80;5.20;;;;;;;26.06;nan;99791.53;5036484;28;20830;-85
2023/05/27 10:01:46;;;;;;;8.93;4.73;;;;;;;26.10;nan;99790.09;5036015;28;20434;-84
2023/05/27 10:04:15;;;;;;;9.23;5.83;;;;;;;26.10;nan;99786.59;5037009;28;20213;-85
2023/05/27 10:06:41;;;;;;;7.77;4.40;;;;;;;26.10;nan;99784.72;5037973;28;20514;-85
2023/05/27 10:09:06;;;;;;;8.30;4.30;;;;;;;26.12;nan;99784.53;5047767;28;20798;-84
2023/05/27 10:11:36;;;;;;;6.50;5.47;;;;;;;26.17;nan;99780.22;5047629;28;20656;-84
2023/05/27 10:14:02;;;;;;;11.90;4.70;;;;;;;26.20;nan;99769.06;5048345;28;20200;-86
2023/05/27 10:16:28;;;;;;;10.60;4.60;;;;;;;26.24;nan;99767.63;5046635;28;20459;-84
2023/05/27 10:18:55;;;;;;;6.60;4.53;;;;;;;26.29;nan;99768.94;5047247;28;20447;-84
2023/05/27 10:21:28;;;;;;;9.77;4.93;;;;;;;26.39;nan;99758.66;5047999;28;20220;-85
2023/05/27 10:24:02;;;;;;;7.43;5.10;;;;;;;26.46;nan;99754.97;5043022;28;20451;-85
2023/05/27 10:26:39;;;;;;;5.63;4.53;;;;;;;26.57;nan;99750.94;5044127;28;20465;-84
2023/05/27 10:29:07;;;;;;;6.60;5.50;;;;;;;26.67;nan;99748.69;5044699;28;20459;-84
2023/05/27 10:31:33;;;;;;;10.37;5.20;;;;;;;26.84;nan;99742.97;5045407;28;20467;-85
2023/05/27 10:33:59;;;;;;;9.97;4.33;;;;;;;26.91;nan;99749.22;5047895;28;20452;-85
2023/05/27 10:36:28;;;;;;;6.10;4.10;;;;;;;26.97;nan;99744.91;5047227;28;20442;-85
2023/05/27 10:39:14;;;;;;;4.27;3.80;;;;;;;27.03;nan;99738.69;5045487;28;20192;-87
2023/05/27 10:41:51;;;;;;;5.73;4.10;;;;;;;27.09;nan;99740.59;5046616;28;20552;-85
2023/05/27 10:44:34;;;;;;;5.73;4.50;;;;;;;27.09;nan;99736.03;5045447;28;20486;-85
2023/05/27 10:47:09;;;;;;;7.67;4.63;;;;;;;27.08;nan;99741.63;5044992;28;20540;-85
2023/05/27 10:49:36;;;;;;;5.90;4.43;;;;;;;27.12;nan;99734.81;5045898;28;20445;-85
2023/05/27 10:52:16;;;;;;;7.80;4.60;;;;;;;27.13;nan;99739.97;5044263;28;20515;-85
2023/05/27 10:54:43;;;;;;;10.90;4.87;;;;;;;26.96;nan;99729.75;5043850;28;20467;-85
2023/05/27 10:57:10;;;;;;;7.40;4.53;;;;;;;26.81;nan;99732.59;5044360;28;20465;-85
2023/05/27 10:59:44;;;;;;;11.33;5.23;;;;;;;26.72;nan;99725.72;5044006;28;20456;-85
2023/05/27 11:02:11;;;;;;;6.20;5.10;;;;;;;26.64;nan;99718.63;5043694;28;20448;-84
2023/05/27 11:04:36;;;;;;;9.47;6.13;;;;;;;26.48;nan;99720.56;5041499;28;20499;-85
2023/05/27 11:07:03;;;;;;;6.97;4.77;;;;;;;26.42;nan;99725.94;5029727;28;20852;-85
2023/05/27 11:09:28;;;;;;;7.27;4.37;;;;;;;26.42;nan;99715.97;5041806;28;20213;-85
2023/05/27 11:11:55;;;;;;;8.80;3.77;;;;;;;26.46;nan;99711.03;5029193;28;20431;-86
2023/05/27 11:14:21;;;;;;;6.93;4.50;;;;;;;26.45;nan;99710.19;5040481;28;20202;-85
2023/05/27 11:16:52;;;;;;;6.13;3.97;;;;;;;26.46;nan;99714.56;5040955;28;20452;-85
2023/05/27 11:19:20;;;;;;;9.23;4.50;;;;;;;26.46;nan;99713.72;5041003;28;20324;-85
2023/05/27 11:21:46;;;;;;;9.40;4.37;;;;;;;26.54;nan;99708.19;5041151;28;20462;-86
2023/05/27 11:24:16;;;;;;;9.13;4.53;;;;;;;26.54;nan;99704.69;5046691;28;20486;-86
2023/05/27 11:26:46;;;;;;;14.60;5.00;;;;;;;26.53;nan;99695.78;5047668;28;21061;-85
2023/05/27 11:29:11;;;;;;;13.90;6.43;;;;;;;26.61;nan;99692.91;5049278;28;20453;-85
2023/05/27 11:31:40;;;;;;;7.50;4.10;;;;;;;26.65;nan;99680.72;5049735;28;20498;-85
2023/05/27 11:34:19;;;;;;;8.47;6.10;;;;;;;26.73;nan;99673.47;5034594;28;20475;-86
2023/05/27 11:36:45;;;;;;;16.40;5.63;;;;;;;26.88;nan;99676.84;5047147;28;20447;-85
2023/05/27 11:39:13;;;;;;;9.60;4.57;;;;;;;26.94;nan;99681.44;5049849;28;20454;-86
2023/05/27 11:41:51;;;;;;;6.53;5.60;;;;;;;26.94;nan;99681.44;5049773;28;20528;-85
2023/05/27 11:44:22;;;;;;;13.10;5.07;;;;;;;26.95;nan;99680.41;5047200;28;20484;-85
2023/05/27 11:46:49;;;;;;;9.10;5.30;;;;;;;26.96;nan;99660.50;5049204;28;20421;-86
2023/05/27 11:49:16;;;;;;;11.33;6.37;;;;;;;26.96;nan;99667.75;5049184;28;21128;-85
2023/05/27 11:51:45;;;;;;;7.30;4.67;;;;;;;26.93;nan;99658.22;5042439;28;20478;-85
2023/05/27 11:54:23;;;;;;;6.00;4.40;;;;;;;26.98;nan;99660.28;5046033;28;20573;-87
2023/05/27 11:56:48;;;;;;;5.10;4.10;;;;;;;26.97;nan;99656.75;5045172;28;20527;-85